sensor_id;sensor_type;location;lat;lon;timestamp;temperature;humidity
44063;DHT22;29727;47.606;19.130;2022-12-22T00:01:32;5.00;70.00
44063;DHT22;29727;47.606;19.130;2022-12-22T00:04:16;5.00;70.00
44063;DHT22;29727;47.606;19.130;2022-12-22T00:07:00;5.10;70.10
44063;DHT22;29727;47.606;19.130;2022-12-22T00:09:44;5.10;70.30
44063;DHT22;29727;47.606;19.130;2022-12-22T00:12:28;5.10;70.30
44063;DHT22;29727;47.606;19.130;2022-12-22T00:15:14;5.10;70.10
44063;DHT22;29727;47.606;19.130;2022-12-22T00:17:59;5.10;70.10
44063;DHT22;29727;47.606;19.130;2022-12-22T00:20:44;5.10;69.90
44063;DHT22;29727;47.606;19.130;2022-12-22T00:23:29;5.10;69.70
44063;DHT22;29727;47.606;19.130;2022-12-22T00:26:13;5.20;69.50
44063;DHT22;29727;47.606;19.130;2022-12-22T00:28:57;5.10;70.00
44063;DHT22;29727;47.606;19.130;2022-12-22T00:31:42;5.10;70.00
44063;DHT22;29727;47.606;19.130;2022-12-22T00:34:26;5.20;70.20
44063;DHT22;29727;47.606;19.130;2022-12-22T00:37:12;5.10;70.00
44063;DHT22;29727;47.606;19.130;2022-12-22T00:39:58;5.10;70.00
44063;DHT22;29727;47.606;19.130;2022-12-22T00:42:42;5.10;70.00
44063;DHT22;29727;47.606;19.130;2022-12-22T00:45:26;5.10;69.90
44063;DHT22;29727;47.606;19.130;2022-12-22T00:48:21;5.10;69.80
44063;DHT22;29727;47.606;19.130;2022-12-22T00:51:06;5.10;69.90
44063;DHT22;29727;47.606;19.130;2022-12-22T00:53:51;5.10;69.90
44063;DHT22;29727;47.606;19.130;2022-12-22T00:56:35;5.10;69.80
44063;DHT22;29727;47.606;19.130;2022-12-22T00:59:19;5.10;69.80
44063;DHT22;29727;47.606;19.130;2022-12-22T01:02:04;5.10;69.60
44063;DHT22;29727;47.606;19.130;2022-12-22T01:04:48;5.10;69.50
44063;DHT22;29727;47.606;19.130;2022-12-22T01:07:32;5.10;69.40
44063;DHT22;29727;47.606;19.130;2022-12-22T01:10:17;5.10;69.20
44063;DHT22;29727;47.606;19.130;2022-12-22T01:13:11;5.10;68.40
44063;DHT22;29727;47.606;19.130;2022-12-22T01:15:55;5.10;68.60
44063;DHT22;29727;47.606;19.130;2022-12-22T01:18:39;5.10;68.50
44063;DHT22;29727;47.606;19.130;2022-12-22T01:21:23;5.10;68.60
44063;DHT22;29727;47.606;19.130;2022-12-22T01:24:15;5.10;68.80
44063;DHT22;29727;47.606;19.130;2022-12-22T01:27:00;5.10;68.60
44063;DHT22;29727;47.606;19.130;2022-12-22T01:29:44;5.00;68.60
44063;DHT22;29727;47.606;19.130;2022-12-22T01:32:29;5.00;69.30
44063;DHT22;29727;47.606;19.130;2022-12-22T01:35:21;4.90;69.70
44063;DHT22;29727;47.606;19.130;2022-12-22T01:38:06;4.90;70.00
44063;DHT22;29727;47.606;19.130;2022-12-22T01:40:51;4.90;69.90
44063;DHT22;29727;47.606;19.130;2022-12-22T01:43:36;4.90;70.40
44063;DHT22;29727;47.606;19.130;2022-12-22T01:49:36;4.90;70.60
44063;DHT22;29727;47.606;19.130;2022-12-22T01:52:24;4.80;70.50
44063;DHT22;29727;47.606;19.130;2022-12-22T01:55:13;4.80;70.40
44063;DHT22;29727;47.606;19.130;2022-12-22T01:57:58;4.80;70.00
44063;DHT22;29727;47.606;19.130;2022-12-22T02:00:44;4.80;69.30
44063;DHT22;29727;47.606;19.130;2022-12-22T02:03:29;4.80;69.80
44063;DHT22;29727;47.606;19.130;2022-12-22T02:09:26;4.80;69.90
44063;DHT22;29727;47.606;19.130;2022-12-22T02:18:24;4.80;69.90
44063;DHT22;29727;47.606;19.130;2022-12-22T02:21:15;4.90;70.00
44063;DHT22;29727;47.606;19.130;2022-12-22T02:24:27;4.90;69.20
44063;DHT22;29727;47.606;19.130;2022-12-22T02:27:16;4.90;69.10
44063;DHT22;29727;47.606;19.130;2022-12-22T02:30:05;4.90;69.30
44063;DHT22;29727;47.606;19.130;2022-12-22T02:32:50;4.90;69.30
44063;DHT22;29727;47.606;19.130;2022-12-22T02:39:37;4.90;70.00
44063;DHT22;29727;47.606;19.130;2022-12-22T02:45:36;5.00;69.90
44063;DHT22;29727;47.606;19.130;2022-12-22T02:48:31;5.10;69.90
44063;DHT22;29727;47.606;19.130;2022-12-22T02:51:22;5.10;70.00
44063;DHT22;29727;47.606;19.130;2022-12-22T02:54:07;5.10;70.00
44063;DHT22;29727;47.606;19.130;2022-12-22T02:56:51;5.10;70.00
44063;DHT22;29727;47.606;19.130;2022-12-22T02:59:35;5.20;70.00
44063;DHT22;29727;47.606;19.130;2022-12-22T03:02:20;5.20;69.90
44063;DHT22;29727;47.606;19.130;2022-12-22T03:05:04;5.20;69.70
44063;DHT22;29727;47.606;19.130;2022-12-22T03:07:48;5.20;69.60
44063;DHT22;29727;47.606;19.130;2022-12-22T03:10:33;5.30;69.50
44063;DHT22;29727;47.606;19.130;2022-12-22T03:13:17;5.30;69.50
44063;DHT22;29727;47.606;19.130;2022-12-22T03:16:01;5.30;69.50
44063;DHT22;29727;47.606;19.130;2022-12-22T03:18:45;5.30;69.50
44063;DHT22;29727;47.606;19.130;2022-12-22T03:21:29;5.30;69.30
44063;DHT22;29727;47.606;19.130;2022-12-22T03:24:13;5.30;69.30
44063;DHT22;29727;47.606;19.130;2022-12-22T03:26:57;5.30;69.30
44063;DHT22;29727;47.606;19.130;2022-12-22T03:29:23;5.30;69.20
44063;DHT22;29727;47.606;19.130;2022-12-22T03:31:48;5.30;69.20
44063;DHT22;29727;47.606;19.130;2022-12-22T03:34:14;5.30;68.70
44063;DHT22;29727;47.606;19.130;2022-12-22T03:36:40;5.30;68.80
44063;DHT22;29727;47.606;19.130;2022-12-22T03:39:06;5.30;69.10
44063;DHT22;29727;47.606;19.130;2022-12-22T03:41:31;5.30;68.70
44063;DHT22;29727;47.606;19.130;2022-12-22T03:44:15;5.30;69.20
44063;DHT22;29727;47.606;19.130;2022-12-22T03:46:59;5.30;69.30
44063;DHT22;29727;47.606;19.130;2022-12-22T03:49:25;5.30;69.30
44063;DHT22;29727;47.606;19.130;2022-12-22T03:51:52;5.40;69.30
44063;DHT22;29727;47.606;19.130;2022-12-22T03:54:20;5.40;69.40
44063;DHT22;29727;47.606;19.130;2022-12-22T03:56:47;5.40;69.90
44063;DHT22;29727;47.606;19.130;2022-12-22T03:59:14;5.40;70.60
44063;DHT22;29727;47.606;19.130;2022-12-22T04:01:45;5.40;71.10
44063;DHT22;29727;47.606;19.130;2022-12-22T04:04:13;5.40;71.70
44063;DHT22;29727;47.606;19.130;2022-12-22T04:06:39;5.40;72.10
44063;DHT22;29727;47.606;19.130;2022-12-22T04:09:05;5.30;72.30
44063;DHT22;29727;47.606;19.130;2022-12-22T04:11:31;5.30;72.80
44063;DHT22;29727;47.606;19.130;2022-12-22T04:14:29;5.20;73.00
44063;DHT22;29727;47.606;19.130;2022-12-22T04:16:54;5.20;73.30
44063;DHT22;29727;47.606;19.130;2022-12-22T04:19:20;5.20;73.70
44063;DHT22;29727;47.606;19.130;2022-12-22T04:21:46;5.20;74.10
44063;DHT22;29727;47.606;19.130;2022-12-22T04:24:11;5.20;74.10
44063;DHT22;29727;47.606;19.130;2022-12-22T04:26:38;5.20;74.20
44063;DHT22;29727;47.606;19.130;2022-12-22T04:29:04;5.20;74.40
44063;DHT22;29727;47.606;19.130;2022-12-22T04:31:30;5.20;75.20
44063;DHT22;29727;47.606;19.130;2022-12-22T04:33:56;5.20;74.60
44063;DHT22;29727;47.606;19.130;2022-12-22T04:36:22;5.20;74.50
44063;DHT22;29727;47.606;19.130;2022-12-22T04:38:48;5.20;74.60
44063;DHT22;29727;47.606;19.130;2022-12-22T04:41:13;5.20;74.80
44063;DHT22;29727;47.606;19.130;2022-12-22T04:43:39;5.20;74.80
44063;DHT22;29727;47.606;19.130;2022-12-22T04:46:05;5.20;74.80
44063;DHT22;29727;47.606;19.130;2022-12-22T04:48:31;5.20;74.90
44063;DHT22;29727;47.606;19.130;2022-12-22T04:50:58;5.20;75.00
44063;DHT22;29727;47.606;19.130;2022-12-22T04:53:26;5.20;75.30
44063;DHT22;29727;47.606;19.130;2022-12-22T04:56:00;5.20;75.60
44063;DHT22;29727;47.606;19.130;2022-12-22T04:58:27;5.30;75.80
44063;DHT22;29727;47.606;19.130;2022-12-22T05:00:53;5.20;75.80
44063;DHT22;29727;47.606;19.130;2022-12-22T05:03:19;5.20;75.90
44063;DHT22;29727;47.606;19.130;2022-12-22T05:05:44;5.20;75.90
44063;DHT22;29727;47.606;19.130;2022-12-22T05:08:10;5.20;76.00
44063;DHT22;29727;47.606;19.130;2022-12-22T05:10:39;5.20;75.90
44063;DHT22;29727;47.606;19.130;2022-12-22T05:13:05;5.20;76.40
44063;DHT22;29727;47.606;19.130;2022-12-22T05:15:32;5.20;76.30
44063;DHT22;29727;47.606;19.130;2022-12-22T05:17:59;5.20;76.30
44063;DHT22;29727;47.606;19.130;2022-12-22T05:20:26;5.20;76.20
44063;DHT22;29727;47.606;19.130;2022-12-22T05:22:52;5.20;76.30
44063;DHT22;29727;47.606;19.130;2022-12-22T05:25:18;5.20;76.50
44063;DHT22;29727;47.606;19.130;2022-12-22T05:27:45;5.20;76.50
44063;DHT22;29727;47.606;19.130;2022-12-22T05:30:12;5.20;76.80
44063;DHT22;29727;47.606;19.130;2022-12-22T05:32:38;5.20;76.90
44063;DHT22;29727;47.606;19.130;2022-12-22T05:35:04;5.20;76.90
44063;DHT22;29727;47.606;19.130;2022-12-22T05:37:30;5.20;77.00
44063;DHT22;29727;47.606;19.130;2022-12-22T05:39:56;5.20;77.10
44063;DHT22;29727;47.606;19.130;2022-12-22T05:42:22;5.20;76.90
44063;DHT22;29727;47.606;19.130;2022-12-22T05:45:11;5.20;77.20
44063;DHT22;29727;47.606;19.130;2022-12-22T05:47:37;5.20;77.30
44063;DHT22;29727;47.606;19.130;2022-12-22T05:50:04;5.20;77.50
44063;DHT22;29727;47.606;19.130;2022-12-22T05:52:30;5.20;77.70
44063;DHT22;29727;47.606;19.130;2022-12-22T05:54:56;5.20;77.70
44063;DHT22;29727;47.606;19.130;2022-12-22T05:57:22;5.30;77.80
44063;DHT22;29727;47.606;19.130;2022-12-22T05:59:47;5.20;77.80
44063;DHT22;29727;47.606;19.130;2022-12-22T06:02:13;5.20;77.80
44063;DHT22;29727;47.606;19.130;2022-12-22T06:04:39;5.20;77.90
44063;DHT22;29727;47.606;19.130;2022-12-22T06:07:04;5.20;77.90
44063;DHT22;29727;47.606;19.130;2022-12-22T06:09:30;5.30;77.50
44063;DHT22;29727;47.606;19.130;2022-12-22T06:11:56;5.30;77.30
44063;DHT22;29727;47.606;19.130;2022-12-22T06:14:21;5.30;77.30
44063;DHT22;29727;47.606;19.130;2022-12-22T06:16:47;5.30;77.20
44063;DHT22;29727;47.606;19.130;2022-12-22T06:19:13;5.20;77.60
44063;DHT22;29727;47.606;19.130;2022-12-22T06:21:38;5.20;78.10
44063;DHT22;29727;47.606;19.130;2022-12-22T06:24:05;5.20;78.20
44063;DHT22;29727;47.606;19.130;2022-12-22T06:26:32;5.20;78.50
44063;DHT22;29727;47.606;19.130;2022-12-22T06:28:57;5.20;78.50
44063;DHT22;29727;47.606;19.130;2022-12-22T06:31:23;5.10;78.50
44063;DHT22;29727;47.606;19.130;2022-12-22T06:33:49;5.20;78.60
44063;DHT22;29727;47.606;19.130;2022-12-22T06:36:14;5.20;78.50
44063;DHT22;29727;47.606;19.130;2022-12-22T06:38:40;5.20;78.60
44063;DHT22;29727;47.606;19.130;2022-12-22T06:41:06;5.20;78.50
44063;DHT22;29727;47.606;19.130;2022-12-22T06:43:31;5.20;78.50
44063;DHT22;29727;47.606;19.130;2022-12-22T06:45:57;5.20;78.60
44063;DHT22;29727;47.606;19.130;2022-12-22T06:48:23;5.20;77.90
44063;DHT22;29727;47.606;19.130;2022-12-22T06:50:49;5.20;78.40
44063;DHT22;29727;47.606;19.130;2022-12-22T06:53:14;5.20;78.30
44063;DHT22;29727;47.606;19.130;2022-12-22T06:55:40;5.30;78.40
44063;DHT22;29727;47.606;19.130;2022-12-22T06:58:06;5.30;78.50
44063;DHT22;29727;47.606;19.130;2022-12-22T07:00:32;5.30;78.60
44063;DHT22;29727;47.606;19.130;2022-12-22T07:02:58;5.30;78.60
44063;DHT22;29727;47.606;19.130;2022-12-22T07:05:24;5.30;78.00
44063;DHT22;29727;47.606;19.130;2022-12-22T07:07:50;5.30;77.90
44063;DHT22;29727;47.606;19.130;2022-12-22T07:10:16;5.30;78.10
44063;DHT22;29727;47.606;19.130;2022-12-22T07:12:41;5.20;78.60
44063;DHT22;29727;47.606;19.130;2022-12-22T07:15:08;5.20;78.80
44063;DHT22;29727;47.606;19.130;2022-12-22T07:17:33;5.20;78.70
44063;DHT22;29727;47.606;19.130;2022-12-22T07:19:59;5.30;79.00
44063;DHT22;29727;47.606;19.130;2022-12-22T07:22:26;5.20;78.80
44063;DHT22;29727;47.606;19.130;2022-12-22T07:24:52;5.30;79.00
44063;DHT22;29727;47.606;19.130;2022-12-22T07:27:19;5.30;78.90
44063;DHT22;29727;47.606;19.130;2022-12-22T07:29:44;5.30;78.90
44063;DHT22;29727;47.606;19.130;2022-12-22T07:32:10;5.30;79.50
44063;DHT22;29727;47.606;19.130;2022-12-22T07:34:36;5.30;78.80
44063;DHT22;29727;47.606;19.130;2022-12-22T07:37:02;5.30;78.80
44063;DHT22;29727;47.606;19.130;2022-12-22T07:39:28;5.40;78.20
44063;DHT22;29727;47.606;19.130;2022-12-22T07:41:53;5.40;79.40
44063;DHT22;29727;47.606;19.130;2022-12-22T07:44:37;5.40;78.70
44063;DHT22;29727;47.606;19.130;2022-12-22T07:47:03;5.40;78.80
44063;DHT22;29727;47.606;19.130;2022-12-22T07:49:29;5.40;78.80
44063;DHT22;29727;47.606;19.130;2022-12-22T07:52:13;5.40;78.10
44063;DHT22;29727;47.606;19.130;2022-12-22T07:54:39;5.50;78.10
44063;DHT22;29727;47.606;19.130;2022-12-22T07:57:04;5.40;78.60
44063;DHT22;29727;47.606;19.130;2022-12-22T07:59:30;5.50;78.50
44063;DHT22;29727;47.606;19.130;2022-12-22T08:01:56;5.50;78.60
44063;DHT22;29727;47.606;19.130;2022-12-22T08:04:21;5.50;78.60
44063;DHT22;29727;47.606;19.130;2022-12-22T08:06:47;5.50;78.40
44063;DHT22;29727;47.606;19.130;2022-12-22T08:09:15;5.50;78.20
44063;DHT22;29727;47.606;19.130;2022-12-22T08:11:41;5.50;78.10
44063;DHT22;29727;47.606;19.130;2022-12-22T08:14:07;5.50;77.90
44063;DHT22;29727;47.606;19.130;2022-12-22T08:16:32;5.50;77.70
44063;DHT22;29727;47.606;19.130;2022-12-22T08:18:58;5.60;77.70
44063;DHT22;29727;47.606;19.130;2022-12-22T08:21:24;5.60;77.80
44063;DHT22;29727;47.606;19.130;2022-12-22T08:23:49;5.60;77.80
44063;DHT22;29727;47.606;19.130;2022-12-22T08:26:26;5.60;77.40
44063;DHT22;29727;47.606;19.130;2022-12-22T08:28:57;5.70;77.50
44063;DHT22;29727;47.606;19.130;2022-12-22T08:31:25;5.70;77.60
44063;DHT22;29727;47.606;19.130;2022-12-22T08:33:52;5.80;77.70
44063;DHT22;29727;47.606;19.130;2022-12-22T08:36:19;5.80;77.90
44063;DHT22;29727;47.606;19.130;2022-12-22T08:38:45;5.80;78.40
44063;DHT22;29727;47.606;19.130;2022-12-22T08:41:13;5.80;78.80
44063;DHT22;29727;47.606;19.130;2022-12-22T08:43:39;5.80;78.80
44063;DHT22;29727;47.606;19.130;2022-12-22T08:46:05;5.90;78.80
44063;DHT22;29727;47.606;19.130;2022-12-22T08:48:31;5.90;78.20
44063;DHT22;29727;47.606;19.130;2022-12-22T08:50:57;5.90;78.10
44063;DHT22;29727;47.606;19.130;2022-12-22T08:53:23;5.90;78.20
44063;DHT22;29727;47.606;19.130;2022-12-22T08:55:55;5.80;78.10
44063;DHT22;29727;47.606;19.130;2022-12-22T08:58:21;5.80;77.90
44063;DHT22;29727;47.606;19.130;2022-12-22T09:00:47;5.80;78.40
44063;DHT22;29727;47.606;19.130;2022-12-22T09:03:13;5.80;78.70
44063;DHT22;29727;47.606;19.130;2022-12-22T09:05:39;5.80;78.50
44063;DHT22;29727;47.606;19.130;2022-12-22T09:08:06;5.80;78.90
44063;DHT22;29727;47.606;19.130;2022-12-22T09:10:32;5.90;79.20
44063;DHT22;29727;47.606;19.130;2022-12-22T09:12:57;5.80;78.60
44063;DHT22;29727;47.606;19.130;2022-12-22T09:15:24;5.80;79.10
44063;DHT22;29727;47.606;19.130;2022-12-22T09:17:49;5.80;79.40
44063;DHT22;29727;47.606;19.130;2022-12-22T09:20:15;5.90;79.30
44063;DHT22;29727;47.606;19.130;2022-12-22T09:22:41;5.80;78.90
44063;DHT22;29727;47.606;19.130;2022-12-22T09:25:07;5.90;79.70
44063;DHT22;29727;47.606;19.130;2022-12-22T09:27:32;5.90;79.50
44063;DHT22;29727;47.606;19.130;2022-12-22T09:29:58;5.90;79.50
44063;DHT22;29727;47.606;19.130;2022-12-22T09:32:24;6.00;79.40
44063;DHT22;29727;47.606;19.130;2022-12-22T09:34:50;6.00;79.20
44063;DHT22;29727;47.606;19.130;2022-12-22T09:37:16;6.00;79.10
44063;DHT22;29727;47.606;19.130;2022-12-22T09:39:41;6.00;79.00
44063;DHT22;29727;47.606;19.130;2022-12-22T09:42:18;6.00;79.50
44063;DHT22;29727;47.606;19.130;2022-12-22T09:44:47;6.00;78.90
44063;DHT22;29727;47.606;19.130;2022-12-22T09:49:43;6.00;79.60
44063;DHT22;29727;47.606;19.130;2022-12-22T09:52:29;6.00;79.80
44063;DHT22;29727;47.606;19.130;2022-12-22T09:57:49;6.00;79.00
44063;DHT22;29727;47.606;19.130;2022-12-22T10:00:17;6.10;79.40
44063;DHT22;29727;47.606;19.130;2022-12-22T10:08:11;6.20;78.40
44063;DHT22;29727;47.606;19.130;2022-12-22T10:10:38;6.20;78.00
44063;DHT22;29727;47.606;19.130;2022-12-22T10:13:04;6.20;77.50
44063;DHT22;29727;47.606;19.130;2022-12-22T10:15:39;6.20;76.50
44063;DHT22;29727;47.606;19.130;2022-12-22T10:18:17;6.20;75.60
44063;DHT22;29727;47.606;19.130;2022-12-22T10:21:05;6.20;75.80
44063;DHT22;29727;47.606;19.130;2022-12-22T10:23:34;6.10;75.90
44063;DHT22;29727;47.606;19.130;2022-12-22T10:31:26;6.10;75.90
44063;DHT22;29727;47.606;19.130;2022-12-22T10:34:08;6.10;75.70
44063;DHT22;29727;47.606;19.130;2022-12-22T10:36:35;6.10;75.60
44063;DHT22;29727;47.606;19.130;2022-12-22T10:39:07;6.10;75.80
44063;DHT22;29727;47.606;19.130;2022-12-22T10:41:42;6.20;76.40
44063;DHT22;29727;47.606;19.130;2022-12-22T10:46:47;6.20;75.70
44063;DHT22;29727;47.606;19.130;2022-12-22T10:49:23;6.20;75.00
44063;DHT22;29727;47.606;19.130;2022-12-22T10:51:57;6.20;75.90
44063;DHT22;29727;47.606;19.130;2022-12-22T10:54:34;6.20;75.30
44063;DHT22;29727;47.606;19.130;2022-12-22T11:02:25;6.20;75.80
44063;DHT22;29727;47.606;19.130;2022-12-22T11:04:52;6.30;75.10
44063;DHT22;29727;47.606;19.130;2022-12-22T11:07:18;6.30;74.60
44063;DHT22;29727;47.606;19.130;2022-12-22T11:09:44;6.50;74.30
44063;DHT22;29727;47.606;19.130;2022-12-22T11:12:38;6.50;74.50
44063;DHT22;29727;47.606;19.130;2022-12-22T11:15:29;6.50;74.10
44063;DHT22;29727;47.606;19.130;2022-12-22T11:18:29;6.70;74.50
44063;DHT22;29727;47.606;19.130;2022-12-22T11:21:01;6.70;73.50
44063;DHT22;29727;47.606;19.130;2022-12-22T11:39:20;7.30;72.10
44063;DHT22;29727;47.606;19.130;2022-12-22T12:09:42;7.60;69.70
44063;DHT22;29727;47.606;19.130;2022-12-22T12:18:11;7.50;69.90
44063;DHT22;29727;47.606;19.130;2022-12-22T12:26:26;8.00;81.00
44063;DHT22;29727;47.606;19.130;2022-12-22T12:29:14;8.30;75.50
44063;DHT22;29727;47.606;19.130;2022-12-22T12:31:49;8.60;70.50
44063;DHT22;29727;47.606;19.130;2022-12-22T12:34:18;8.70;68.00
44063;DHT22;29727;47.606;19.130;2022-12-22T12:39:32;8.80;65.80
44063;DHT22;29727;47.606;19.130;2022-12-22T12:44:41;8.70;65.60
44063;DHT22;29727;47.606;19.130;2022-12-22T12:47:26;8.60;65.70
44063;DHT22;29727;47.606;19.130;2022-12-22T12:58:02;8.30;66.80
44063;DHT22;29727;47.606;19.130;2022-12-22T13:06:00;8.20;67.40
44063;DHT22;29727;47.606;19.130;2022-12-22T13:08:28;8.10;67.40
44063;DHT22;29727;47.606;19.130;2022-12-22T13:15:46;8.10;68.00
44063;DHT22;29727;47.606;19.130;2022-12-22T13:23:33;7.90;70.50
44063;DHT22;29727;47.606;19.130;2022-12-22T13:28:36;7.60;72.10
44063;DHT22;29727;47.606;19.130;2022-12-22T13:31:12;7.50;72.00
44063;DHT22;29727;47.606;19.130;2022-12-22T13:33:41;7.40;72.00
44063;DHT22;29727;47.606;19.130;2022-12-22T13:36:23;7.30;72.90
44063;DHT22;29727;47.606;19.130;2022-12-22T13:39:14;7.20;73.50
44063;DHT22;29727;47.606;19.130;2022-12-22T13:41:45;7.20;73.80
44063;DHT22;29727;47.606;19.130;2022-12-22T13:44:15;7.10;73.50
44063;DHT22;29727;47.606;19.130;2022-12-22T13:46:41;7.10;74.10
44063;DHT22;29727;47.606;19.130;2022-12-22T13:49:11;7.00;73.70
44063;DHT22;29727;47.606;19.130;2022-12-22T13:51:38;7.00;73.90
44063;DHT22;29727;47.606;19.130;2022-12-22T13:54:16;7.00;73.90
44063;DHT22;29727;47.606;19.130;2022-12-22T13:56:47;6.90;74.20
44063;DHT22;29727;47.606;19.130;2022-12-22T14:01:58;6.80;74.50
44063;DHT22;29727;47.606;19.130;2022-12-22T14:04:25;6.80;74.30
44063;DHT22;29727;47.606;19.130;2022-12-22T14:06:51;6.80;74.50
44063;DHT22;29727;47.606;19.130;2022-12-22T14:09:20;6.80;74.70
44063;DHT22;29727;47.606;19.130;2022-12-22T14:12:02;6.70;74.70
44063;DHT22;29727;47.606;19.130;2022-12-22T14:14:37;6.70;74.90
44063;DHT22;29727;47.606;19.130;2022-12-22T14:17:03;6.70;74.90
44063;DHT22;29727;47.606;19.130;2022-12-22T14:19:38;6.70;75.40
44063;DHT22;29727;47.606;19.130;2022-12-22T14:22:10;6.60;75.40
44063;DHT22;29727;47.606;19.130;2022-12-22T14:24:55;6.70;74.80
44063;DHT22;29727;47.606;19.130;2022-12-22T14:27:46;6.70;75.30
44063;DHT22;29727;47.606;19.130;2022-12-22T14:30:20;6.70;75.40
44063;DHT22;29727;47.606;19.130;2022-12-22T14:32:48;6.70;75.50
44063;DHT22;29727;47.606;19.130;2022-12-22T14:37:54;6.80;75.60
44063;DHT22;29727;47.606;19.130;2022-12-22T14:40:38;6.80;75.60
44063;DHT22;29727;47.606;19.130;2022-12-22T14:45:46;6.90;75.30
44063;DHT22;29727;47.606;19.130;2022-12-22T14:48:26;6.90;74.90
44063;DHT22;29727;47.606;19.130;2022-12-22T14:50:53;6.90;75.10
44063;DHT22;29727;47.606;19.130;2022-12-22T14:53:42;6.90;74.60
44063;DHT22;29727;47.606;19.130;2022-12-22T14:56:13;6.90;75.30
44063;DHT22;29727;47.606;19.130;2022-12-22T14:58:41;6.90;74.80
44063;DHT22;29727;47.606;19.130;2022-12-22T15:01:27;6.80;75.30
44063;DHT22;29727;47.606;19.130;2022-12-22T15:04:14;6.80;75.60
44063;DHT22;29727;47.606;19.130;2022-12-22T15:06:42;6.80;75.90
44063;DHT22;29727;47.606;19.130;2022-12-22T15:12:01;6.80;76.30
44063;DHT22;29727;47.606;19.130;2022-12-22T15:14:30;6.70;76.30
44063;DHT22;29727;47.606;19.130;2022-12-22T15:16:58;6.70;76.80
44063;DHT22;29727;47.606;19.130;2022-12-22T15:19:28;6.60;77.10
44063;DHT22;29727;47.606;19.130;2022-12-22T15:21:54;6.60;77.30
44063;DHT22;29727;47.606;19.130;2022-12-22T15:24:20;6.50;77.30
44063;DHT22;29727;47.606;19.130;2022-12-22T15:26:45;6.50;77.40
44063;DHT22;29727;47.606;19.130;2022-12-22T15:29:12;6.40;77.70
44063;DHT22;29727;47.606;19.130;2022-12-22T15:31:38;6.40;78.00
44063;DHT22;29727;47.606;19.130;2022-12-22T15:34:14;6.30;78.30
44063;DHT22;29727;47.606;19.130;2022-12-22T15:36:41;6.30;78.70
44063;DHT22;29727;47.606;19.130;2022-12-22T15:39:14;6.20;79.10
44063;DHT22;29727;47.606;19.130;2022-12-22T15:41:42;6.20;79.40
44063;DHT22;29727;47.606;19.130;2022-12-22T15:44:07;6.10;79.60
44063;DHT22;29727;47.606;19.130;2022-12-22T15:46:33;6.10;79.80
44063;DHT22;29727;47.606;19.130;2022-12-22T15:49:00;6.00;80.00
44063;DHT22;29727;47.606;19.130;2022-12-22T15:51:28;6.00;80.50
44063;DHT22;29727;47.606;19.130;2022-12-22T15:53:55;6.00;80.60
44063;DHT22;29727;47.606;19.130;2022-12-22T15:56:23;4.60;79.90
44063;DHT22;29727;47.606;19.130;2022-12-22T15:58:50;6.00;81.10
44063;DHT22;29727;47.606;19.130;2022-12-22T16:01:16;6.00;81.20
44063;DHT22;29727;47.606;19.130;2022-12-22T16:03:42;6.00;81.20
44063;DHT22;29727;47.606;19.130;2022-12-22T16:06:16;6.00;81.50
44063;DHT22;29727;47.606;19.130;2022-12-22T16:08:46;6.00;81.10
44063;DHT22;29727;47.606;19.130;2022-12-22T16:11:13;6.00;80.90
44063;DHT22;29727;47.606;19.130;2022-12-22T16:13:40;6.00;81.30
44063;DHT22;29727;47.606;19.130;2022-12-22T16:16:05;6.10;81.20
44063;DHT22;29727;47.606;19.130;2022-12-22T16:18:33;6.10;81.20
44063;DHT22;29727;47.606;19.130;2022-12-22T16:21:06;6.10;81.70
44063;DHT22;29727;47.606;19.130;2022-12-22T16:23:33;6.10;81.70
44063;DHT22;29727;47.606;19.130;2022-12-22T16:26:00;6.20;80.50
44063;DHT22;29727;47.606;19.130;2022-12-22T16:28:26;6.20;81.00
44063;DHT22;29727;47.606;19.130;2022-12-22T16:30:52;6.20;80.40
44063;DHT22;29727;47.606;19.130;2022-12-22T16:33:18;6.20;81.00
44063;DHT22;29727;47.606;19.130;2022-12-22T16:35:44;6.20;81.30
44063;DHT22;29727;47.606;19.130;2022-12-22T16:38:10;6.20;81.00
44063;DHT22;29727;47.606;19.130;2022-12-22T16:40:42;6.20;80.90
44063;DHT22;29727;47.606;19.130;2022-12-22T16:43:29;6.20;80.80
44063;DHT22;29727;47.606;19.130;2022-12-22T16:46:00;6.20;81.30
44063;DHT22;29727;47.606;19.130;2022-12-22T16:48:41;6.10;81.80
44063;DHT22;29727;47.606;19.130;2022-12-22T16:51:17;6.10;81.90
44063;DHT22;29727;47.606;19.130;2022-12-22T16:53:45;6.10;82.20
44063;DHT22;29727;47.606;19.130;2022-12-22T16:56:19;6.10;82.30
44063;DHT22;29727;47.606;19.130;2022-12-22T16:58:46;6.00;82.60
44063;DHT22;29727;47.606;19.130;2022-12-22T17:04:01;6.00;83.00
44063;DHT22;29727;47.606;19.130;2022-12-22T17:06:28;5.90;83.20
44063;DHT22;29727;47.606;19.130;2022-12-22T17:08:54;6.20;83.70
44063;DHT22;29727;47.606;19.130;2022-12-22T17:11:22;5.90;83.80
44063;DHT22;29727;47.606;19.130;2022-12-22T17:13:51;5.80;84.00
44063;DHT22;29727;47.606;19.130;2022-12-22T17:16:19;5.80;84.30
44063;DHT22;29727;47.606;19.130;2022-12-22T17:18:46;5.80;84.50
44063;DHT22;29727;47.606;19.130;2022-12-22T17:21:13;5.80;84.70
44063;DHT22;29727;47.606;19.130;2022-12-22T17:23:44;5.80;84.80
44063;DHT22;29727;47.606;19.130;2022-12-22T17:26:13;5.90;84.90
44063;DHT22;29727;47.606;19.130;2022-12-22T17:28:40;5.90;84.90
44063;DHT22;29727;47.606;19.130;2022-12-22T17:31:06;5.90;85.00
44063;DHT22;29727;47.606;19.130;2022-12-22T17:33:32;5.90;85.10
44063;DHT22;29727;47.606;19.130;2022-12-22T17:35:58;5.80;85.30
44063;DHT22;29727;47.606;19.130;2022-12-22T17:38:25;5.90;84.80
44063;DHT22;29727;47.606;19.130;2022-12-22T17:40:52;5.90;85.20
44063;DHT22;29727;47.606;19.130;2022-12-22T17:43:20;6.00;85.40
44063;DHT22;29727;47.606;19.130;2022-12-22T17:45:46;6.00;85.10
44063;DHT22;29727;47.606;19.130;2022-12-22T17:48:14;6.00;85.00
44063;DHT22;29727;47.606;19.130;2022-12-22T17:50:41;6.00;85.50
44063;DHT22;29727;47.606;19.130;2022-12-22T17:53:12;6.10;85.60
44063;DHT22;29727;47.606;19.130;2022-12-22T17:55:39;6.10;85.50
44063;DHT22;29727;47.606;19.130;2022-12-22T17:58:04;6.10;85.40
44063;DHT22;29727;47.606;19.130;2022-12-22T18:00:30;6.10;85.10
44063;DHT22;29727;47.606;19.130;2022-12-22T18:02:57;6.10;85.20
44063;DHT22;29727;47.606;19.130;2022-12-22T18:05:27;6.10;85.50
44063;DHT22;29727;47.606;19.130;2022-12-22T18:07:56;6.10;85.60
44063;DHT22;29727;47.606;19.130;2022-12-22T18:10:31;6.10;85.60
44063;DHT22;29727;47.606;19.130;2022-12-22T18:12:59;6.10;85.50
44063;DHT22;29727;47.606;19.130;2022-12-22T18:15:27;6.10;86.00
44063;DHT22;29727;47.606;19.130;2022-12-22T18:17:53;6.10;85.90
44063;DHT22;29727;47.606;19.130;2022-12-22T18:20:21;6.10;86.50
44063;DHT22;29727;47.606;19.130;2022-12-22T18:22:51;6.10;86.00
44063;DHT22;29727;47.606;19.130;2022-12-22T18:25:20;6.10;85.40